sensor_id;sensor_type;location;lat;lon;timestamp;P1;durP1;ratioP1;P2;durP2;ratioP2
8694;SDS011;65580;49.446;6.854;2023-04-25T00:00:38;12.35;;;6.13;;
8694;SDS011;65580;49.446;6.854;2023-04-25T00:04:47;13.63;;;6.13;;
8694;SDS011;65580;49.446;6.854;2023-04-25T00:08:59;16.55;;;7.80;;
8694;SDS011;65580;49.446;6.854;2023-04-25T00:13:32;15.35;;;7.00;;
8694;SDS011;65580;49.446;6.854;2023-04-25T00:17:40;19.30;;;8.40;;
8694;SDS011;65580;49.446;6.854;2023-04-25T00:22:02;10.40;;;5.68;;
8694;SDS011;65580;49.446;6.854;2023-04-25T00:26:23;18.27;;;8.27;;
8694;SDS011;65580;49.446;6.854;2023-04-25T00:30:30;15.73;;;6.07;;
8694;SDS011;65580;49.446;6.854;2023-04-25T00:34:40;12.55;;;5.93;;
8694;SDS011;65580;49.446;6.854;2023-04-25T00:38:45;10.30;;;5.75;;
8694;SDS011;65580;49.446;6.854;2023-04-25T00:43:04;21.77;;;9.02;;
8694;SDS011;65580;49.446;6.854;2023-04-25T00:47:12;23.08;;;8.82;;
8694;SDS011;65580;49.446;6.854;2023-04-25T00:51:34;18.55;;;7.80;;
8694;SDS011;65580;49.446;6.854;2023-04-25T01:00:06;12.18;;;6.53;;
8694;SDS011;65580;49.446;6.854;2023-04-25T01:04:19;13.15;;;6.78;;
8694;SDS011;65580;49.446;6.854;2023-04-25T01:08:27;35.70;;;10.98;;
8694;SDS011;65580;49.446;6.854;2023-04-25T01:12:51;18.98;;;8.43;;
8694;SDS011;65580;49.446;6.854;2023-04-25T01:21:27;19.67;;;9.27;;
8694;SDS011;65580;49.446;6.854;2023-04-25T01:25:56;29.83;;;10.70;;
8694;SDS011;65580;49.446;6.854;2023-04-25T01:30:11;15.25;;;6.75;;
8694;SDS011;65580;49.446;6.854;2023-04-25T01:34:26;19.45;;;8.77;;
8694;SDS011;65580;49.446;6.854;2023-04-25T01:43:01;24.08;;;9.55;;
8694;SDS011;65580;49.446;6.854;2023-04-25T01:47:12;15.27;;;7.25;;
8694;SDS011;65580;49.446;6.854;2023-04-25T01:51:19;15.50;;;6.63;;
8694;SDS011;65580;49.446;6.854;2023-04-25T01:55:30;16.98;;;7.70;;
8694;SDS011;65580;49.446;6.854;2023-04-25T01:59:36;14.68;;;7.10;;
8694;SDS011;65580;49.446;6.854;2023-04-25T02:03:43;18.77;;;8.38;;
8694;SDS011;65580;49.446;6.854;2023-04-25T02:07:49;14.98;;;6.68;;
8694;SDS011;65580;49.446;6.854;2023-04-25T02:16:32;13.95;;;7.10;;
8694;SDS011;65580;49.446;6.854;2023-04-25T02:20:46;15.23;;;6.90;;
8694;SDS011;65580;49.446;6.854;2023-04-25T02:25:05;25.85;;;9.63;;
8694;SDS011;65580;49.446;6.854;2023-04-25T02:29:26;31.20;;;10.27;;
8694;SDS011;65580;49.446;6.854;2023-04-25T02:33:55;31.77;;;11.85;;
8694;SDS011;65580;49.446;6.854;2023-04-25T02:38:22;18.52;;;8.40;;
8694;SDS011;65580;49.446;6.854;2023-04-25T02:42:43;15.90;;;7.82;;
8694;SDS011;65580;49.446;6.854;2023-04-25T02:47:09;21.73;;;8.68;;
8694;SDS011;65580;49.446;6.854;2023-04-25T02:51:13;19.38;;;8.90;;
8694;SDS011;65580;49.446;6.854;2023-04-25T02:55:34;18.23;;;8.30;;
8694;SDS011;65580;49.446;6.854;2023-04-25T03:04:04;29.00;;;9.82;;
8694;SDS011;65580;49.446;6.854;2023-04-25T03:08:08;17.30;;;8.60;;
8694;SDS011;65580;49.446;6.854;2023-04-25T03:12:13;19.38;;;8.32;;
8694;SDS011;65580;49.446;6.854;2023-04-25T03:16:22;18.48;;;9.45;;
8694;SDS011;65580;49.446;6.854;2023-04-25T03:20:32;12.48;;;6.47;;
8694;SDS011;65580;49.446;6.854;2023-04-25T03:24:39;16.98;;;8.07;;
8694;SDS011;65580;49.446;6.854;2023-04-25T03:28:47;15.30;;;7.53;;
8694;SDS011;65580;49.446;6.854;2023-04-25T03:32:52;16.05;;;8.00;;
8694;SDS011;65580;49.446;6.854;2023-04-25T03:37:05;12.93;;;7.32;;
8694;SDS011;65580;49.446;6.854;2023-04-25T03:41:16;16.08;;;6.63;;
8694;SDS011;65580;49.446;6.854;2023-04-25T03:45:34;15.20;;;7.82;;
8694;SDS011;65580;49.446;6.854;2023-04-25T03:49:40;16.50;;;8.20;;
8694;SDS011;65580;49.446;6.854;2023-04-25T03:53:50;16.08;;;7.88;;
8694;SDS011;65580;49.446;6.854;2023-04-25T03:57:59;19.95;;;9.35;;
8694;SDS011;65580;49.446;6.854;2023-04-25T04:02:03;18.42;;;9.15;;
8694;SDS011;65580;49.446;6.854;2023-04-25T04:06:11;21.85;;;9.52;;
8694;SDS011;65580;49.446;6.854;2023-04-25T04:10:25;36.35;;;12.10;;
8694;SDS011;65580;49.446;6.854;2023-04-25T04:14:34;18.50;;;8.82;;
8694;SDS011;65580;49.446;6.854;2023-04-25T04:18:51;13.45;;;7.10;;
8694;SDS011;65580;49.446;6.854;2023-04-25T04:22:59;13.25;;;6.72;;
8694;SDS011;65580;49.446;6.854;2023-04-25T04:27:06;18.17;;;8.43;;
8694;SDS011;65580;49.446;6.854;2023-04-25T04:31:20;15.65;;;8.20;;
8694;SDS011;65580;49.446;6.854;2023-04-25T04:35:25;13.68;;;7.00;;
8694;SDS011;65580;49.446;6.854;2023-04-25T04:39:34;14.52;;;6.93;;
8694;SDS011;65580;49.446;6.854;2023-04-25T04:44:02;18.83;;;7.43;;
8694;SDS011;65580;49.446;6.854;2023-04-25T04:48:11;26.77;;;10.63;;
8694;SDS011;65580;49.446;6.854;2023-04-25T04:52:31;15.43;;;7.55;;
8694;SDS011;65580;49.446;6.854;2023-04-25T04:56:35;19.42;;;9.27;;
8694;SDS011;65580;49.446;6.854;2023-04-25T05:00:49;16.33;;;8.45;;
8694;SDS011;65580;49.446;6.854;2023-04-25T05:05:12;15.95;;;8.00;;
8694;SDS011;65580;49.446;6.854;2023-04-25T05:09:28;15.35;;;7.97;;
8694;SDS011;65580;49.446;6.854;2023-04-25T05:13:50;35.17;;;12.82;;
8694;SDS011;65580;49.446;6.854;2023-04-25T05:22:10;37.75;;;13.13;;
8694;SDS011;65580;49.446;6.854;2023-04-25T05:26:22;29.27;;;12.20;;
8694;SDS011;65580;49.446;6.854;2023-04-25T05:30:32;34.60;;;12.60;;
8694;SDS011;65580;49.446;6.854;2023-04-25T05:34:53;24.25;;;11.05;;
8694;SDS011;65580;49.446;6.854;2023-04-25T05:38:59;42.38;;;14.38;;
8694;SDS011;65580;49.446;6.854;2023-04-25T05:43:15;38.40;;;14.57;;
8694;SDS011;65580;49.446;6.854;2023-04-25T05:47:19;36.20;;;15.13;;
8694;SDS011;65580;49.446;6.854;2023-04-25T05:51:45;44.80;;;15.18;;
8694;SDS011;65580;49.446;6.854;2023-04-25T05:55:53;23.40;;;10.27;;
8694;SDS011;65580;49.446;6.854;2023-04-25T06:00:15;16.85;;;8.43;;
8694;SDS011;65580;49.446;6.854;2023-04-25T06:04:25;15.55;;;7.65;;
8694;SDS011;65580;49.446;6.854;2023-04-25T06:08:42;14.70;;;7.75;;
8694;SDS011;65580;49.446;6.854;2023-04-25T06:12:48;15.65;;;8.43;;
8694;SDS011;65580;49.446;6.854;2023-04-25T06:16:52;19.95;;;9.38;;
8694;SDS011;65580;49.446;6.854;2023-04-25T06:25:21;13.57;;;7.60;;
8694;SDS011;65580;49.446;6.854;2023-04-25T06:29:31;13.50;;;6.68;;
8694;SDS011;65580;49.446;6.854;2023-04-25T06:33:52;12.80;;;7.05;;
8694;SDS011;65580;49.446;6.854;2023-04-25T06:38:12;11.40;;;6.45;;
8694;SDS011;65580;49.446;6.854;2023-04-25T06:42:20;13.50;;;6.82;;
8694;SDS011;65580;49.446;6.854;2023-04-25T06:46:27;9.68;;;5.38;;
8694;SDS011;65580;49.446;6.854;2023-04-25T06:50:52;10.90;;;6.10;;
8694;SDS011;65580;49.446;6.854;2023-04-25T06:55:05;13.23;;;6.93;;
8694;SDS011;65580;49.446;6.854;2023-04-25T06:59:18;9.18;;;5.68;;
8694;SDS011;65580;49.446;6.854;2023-04-25T07:07:53;10.35;;;5.35;;
8694;SDS011;65580;49.446;6.854;2023-04-25T07:12:03;8.07;;;5.13;;
8694;SDS011;65580;49.446;6.854;2023-04-25T07:16:36;11.57;;;5.68;;
8694;SDS011;65580;49.446;6.854;2023-04-25T07:20:43;10.88;;;6.03;;
8694;SDS011;65580;49.446;6.854;2023-04-25T07:24:46;8.38;;;5.35;;
8694;SDS011;65580;49.446;6.854;2023-04-25T07:29:21;8.65;;;5.28;;
8694;SDS011;65580;49.446;6.854;2023-04-25T07:33:32;10.07;;;5.05;;
8694;SDS011;65580;49.446;6.854;2023-04-25T07:37:51;8.88;;;4.07;;
8694;SDS011;65580;49.446;6.854;2023-04-25T07:41:59;7.40;;;4.60;;
8694;SDS011;65580;49.446;6.854;2023-04-25T07:46:30;8.13;;;5.13;;
8694;SDS011;65580;49.446;6.854;2023-04-25T07:51:00;11.32;;;6.13;;
8694;SDS011;65580;49.446;6.854;2023-04-25T07:55:32;9.80;;;5.78;;
8694;SDS011;65580;49.446;6.854;2023-04-25T08:00:10;12.15;;;6.25;;
8694;SDS011;65580;49.446;6.854;2023-04-25T08:04:22;11.50;;;6.20;;
8694;SDS011;65580;49.446;6.854;2023-04-25T08:08:56;13.93;;;5.88;;
8694;SDS011;65580;49.446;6.854;2023-04-25T08:13:15;14.50;;;6.70;;
8694;SDS011;65580;49.446;6.854;2023-04-25T08:17:59;11.02;;;6.10;;
8694;SDS011;65580;49.446;6.854;2023-04-25T08:22:24;10.65;;;5.95;;
8694;SDS011;65580;49.446;6.854;2023-04-25T08:26:53;9.85;;;5.55;;
8694;SDS011;65580;49.446;6.854;2023-04-25T08:31:36;10.20;;;6.00;;
8694;SDS011;65580;49.446;6.854;2023-04-25T08:36:11;14.25;;;6.38;;
8694;SDS011;65580;49.446;6.854;2023-04-25T08:40:40;10.63;;;5.88;;
8694;SDS011;65580;49.446;6.854;2023-04-25T08:44:50;10.23;;;5.38;;
8694;SDS011;65580;49.446;6.854;2023-04-25T08:49:27;14.75;;;6.72;;
8694;SDS011;65580;49.446;6.854;2023-04-25T08:53:45;11.57;;;6.53;;
8694;SDS011;65580;49.446;6.854;2023-04-25T08:58:20;12.98;;;5.95;;
8694;SDS011;65580;49.446;6.854;2023-04-25T09:07:24;9.65;;;5.47;;
8694;SDS011;65580;49.446;6.854;2023-04-25T09:11:50;13.75;;;5.68;;
8694;SDS011;65580;49.446;6.854;2023-04-25T09:16:06;11.32;;;5.85;;
8694;SDS011;65580;49.446;6.854;2023-04-25T09:20:25;14.73;;;6.18;;
8694;SDS011;65580;49.446;6.854;2023-04-25T09:24:40;14.68;;;5.90;;
8694;SDS011;65580;49.446;6.854;2023-04-25T09:29:42;14.80;;;5.57;;
8694;SDS011;65580;49.446;6.854;2023-04-25T09:34:04;11.00;;;5.13;;
8694;SDS011;65580;49.446;6.854;2023-04-25T09:38:19;15.27;;;5.70;;
8694;SDS011;65580;49.446;6.854;2023-04-25T09:42:26;10.93;;;5.43;;
8694;SDS011;65580;49.446;6.854;2023-04-25T09:46:50;11.43;;;5.05;;
8694;SDS011;65580;49.446;6.854;2023-04-25T09:51:05;12.30;;;5.20;;
8694;SDS011;65580;49.446;6.854;2023-04-25T09:55:35;8.77;;;4.90;;
8694;SDS011;65580;49.446;6.854;2023-04-25T09:59:50;12.15;;;4.65;;
8694;SDS011;65580;49.446;6.854;2023-04-25T10:04:24;9.15;;;4.57;;
8694;SDS011;65580;49.446;6.854;2023-04-25T10:09:05;8.68;;;4.32;;
8694;SDS011;65580;49.446;6.854;2023-04-25T10:13:44;10.32;;;4.82;;
8694;SDS011;65580;49.446;6.854;2023-04-25T10:18:14;11.93;;;4.60;;
8694;SDS011;65580;49.446;6.854;2023-04-25T10:22:25;11.45;;;4.30;;
8694;SDS011;65580;49.446;6.854;2023-04-25T10:26:36;7.07;;;3.97;;
8694;SDS011;65580;49.446;6.854;2023-04-25T10:30:59;9.48;;;4.00;;
8694;SDS011;65580;49.446;6.854;2023-04-25T10:35:30;7.10;;;4.00;;
8694;SDS011;65580;49.446;6.854;2023-04-25T10:44:18;9.00;;;3.90;;
8694;SDS011;65580;49.446;6.854;2023-04-25T10:48:47;8.60;;;3.30;;
8694;SDS011;65580;49.446;6.854;2023-04-25T10:57:27;8.10;;;3.85;;
8694;SDS011;65580;49.446;6.854;2023-04-25T11:01:45;7.80;;;3.10;;
8694;SDS011;65580;49.446;6.854;2023-04-25T11:06:01;6.97;;;3.65;;
8694;SDS011;65580;49.446;6.854;2023-04-25T11:10:15;6.03;;;3.00;;
8694;SDS011;65580;49.446;6.854;2023-04-25T11:14:19;9.60;;;3.40;;
8694;SDS011;65580;49.446;6.854;2023-04-25T11:18:36;7.43;;;3.20;;
8694;SDS011;65580;49.446;6.854;2023-04-25T11:22:45;4.60;;;2.50;;
8694;SDS011;65580;49.446;6.854;2023-04-25T11:26:54;7.07;;;2.80;;
8694;SDS011;65580;49.446;6.854;2023-04-25T11:31:05;6.10;;;2.83;;
8694;SDS011;65580;49.446;6.854;2023-04-25T11:35:17;5.78;;;2.50;;
8694;SDS011;65580;49.446;6.854;2023-04-25T11:39:29;5.95;;;3.00;;
8694;SDS011;65580;49.446;6.854;2023-04-25T11:47:55;5.32;;;2.55;;
8694;SDS011;65580;49.446;6.854;2023-04-25T11:52:08;5.22;;;2.40;;
8694;SDS011;65580;49.446;6.854;2023-04-25T11:56:14;4.30;;;2.22;;
8694;SDS011;65580;49.446;6.854;2023-04-25T12:00:24;6.18;;;3.05;;
8694;SDS011;65580;49.446;6.854;2023-04-25T12:04:29;4.15;;;2.05;;
8694;SDS011;65580;49.446;6.854;2023-04-25T12:13:22;4.38;;;1.77;;
8694;SDS011;65580;49.446;6.854;2023-04-25T12:17:30;2.40;;;1.40;;
8694;SDS011;65580;49.446;6.854;2023-04-25T12:21:46;3.10;;;1.90;;
8694;SDS011;65580;49.446;6.854;2023-04-25T12:26:00;6.38;;;2.33;;
8694;SDS011;65580;49.446;6.854;2023-04-25T12:30:05;4.38;;;2.08;;
8694;SDS011;65580;49.446;6.854;2023-04-25T12:34:17;4.15;;;2.20;;
8694;SDS011;65580;49.446;6.854;2023-04-25T12:38:23;6.70;;;2.22;;
8694;SDS011;65580;49.446;6.854;2023-04-25T12:42:33;3.75;;;2.25;;
8694;SDS011;65580;49.446;6.854;2023-04-25T12:46:38;4.45;;;1.85;;
8694;SDS011;65580;49.446;6.854;2023-04-25T12:51:07;4.00;;;1.90;;
8694;SDS011;65580;49.446;6.854;2023-04-25T12:55:12;3.72;;;2.13;;
8694;SDS011;65580;49.446;6.854;2023-04-25T12:59:24;3.08;;;1.70;;
8694;SDS011;65580;49.446;6.854;2023-04-25T13:03:29;5.82;;;1.70;;
8694;SDS011;65580;49.446;6.854;2023-04-25T13:07:37;4.10;;;1.98;;
8694;SDS011;65580;49.446;6.854;2023-04-25T13:11:45;3.50;;;1.90;;
8694;SDS011;65580;49.446;6.854;2023-04-25T13:15:59;3.63;;;2.38;;
8694;SDS011;65580;49.446;6.854;2023-04-25T13:20:06;5.28;;;2.10;;
8694;SDS011;65580;49.446;6.854;2023-04-25T13:24:26;4.97;;;2.15;;
8694;SDS011;65580;49.446;6.854;2023-04-25T13:28:47;4.28;;;1.92;;
8694;SDS011;65580;49.446;6.854;2023-04-25T13:37:05;4.90;;;1.80;;
8694;SDS011;65580;49.446;6.854;2023-04-25T13:41:11;6.28;;;2.08;;
8694;SDS011;65580;49.446;6.854;2023-04-25T13:45:41;5.72;;;2.20;;
8694;SDS011;65580;49.446;6.854;2023-04-25T13:49:52;4.10;;;1.90;;
8694;SDS011;65580;49.446;6.854;2023-04-25T13:53:58;4.45;;;1.73;;
8694;SDS011;65580;49.446;6.854;2023-04-25T13:58:09;4.35;;;1.77;;
8694;SDS011;65580;49.446;6.854;2023-04-25T14:06:36;5.55;;;2.00;;
8694;SDS011;65580;49.446;6.854;2023-04-25T14:10:44;3.65;;;2.15;;
8694;SDS011;65580;49.446;6.854;2023-04-25T14:14:56;5.35;;;2.30;;
8694;SDS011;65580;49.446;6.854;2023-04-25T14:19:07;4.05;;;1.77;;
8694;SDS011;65580;49.446;6.854;2023-04-25T14:23:18;5.03;;;1.50;;
8694;SDS011;65580;49.446;6.854;2023-04-25T14:27:22;3.38;;;1.63;;
8694;SDS011;65580;49.446;6.854;2023-04-25T14:31:31;5.82;;;1.85;;
8694;SDS011;65580;49.446;6.854;2023-04-25T14:35:39;5.38;;;1.75;;
8694;SDS011;65580;49.446;6.854;2023-04-25T14:39:49;3.45;;;1.50;;
8694;SDS011;65580;49.446;6.854;2023-04-25T14:44:08;6.53;;;1.77;;
8694;SDS011;65580;49.446;6.854;2023-04-25T14:48:23;2.63;;;1.60;;
8694;SDS011;65580;49.446;6.854;2023-04-25T14:52:28;4.80;;;1.80;;
8694;SDS011;65580;49.446;6.854;2023-04-25T14:56:33;5.07;;;1.77;;
8694;SDS011;65580;49.446;6.854;2023-04-25T15:00:41;5.28;;;2.00;;
8694;SDS011;65580;49.446;6.854;2023-04-25T15:04:48;4.22;;;1.60;;
8694;SDS011;65580;49.446;6.854;2023-04-25T15:08:53;4.70;;;1.80;;
8694;SDS011;65580;49.446;6.854;2023-04-25T15:12:59;4.47;;;2.00;;
8694;SDS011;65580;49.446;6.854;2023-04-25T15:17:03;3.67;;;1.85;;
8694;SDS011;65580;49.446;6.854;2023-04-25T15:21:09;4.82;;;1.70;;
8694;SDS011;65580;49.446;6.854;2023-04-25T15:25:13;4.15;;;1.88;;
8694;SDS011;65580;49.446;6.854;2023-04-25T15:29:19;3.58;;;1.60;;
8694;SDS011;65580;49.446;6.854;2023-04-25T15:37:30;5.38;;;1.50;;
8694;SDS011;65580;49.446;6.854;2023-04-25T15:41:46;7.68;;;1.83;;
8694;SDS011;65580;49.446;6.854;2023-04-25T15:45:49;4.93;;;1.80;;
8694;SDS011;65580;49.446;6.854;2023-04-25T15:49:53;3.75;;;1.75;;
8694;SDS011;65580;49.446;6.854;2023-04-25T15:53:59;3.13;;;1.60;;
8694;SDS011;65580;49.446;6.854;2023-04-25T15:58:04;6.47;;;1.80;;
8694;SDS011;65580;49.446;6.854;2023-04-25T16:02:13;3.50;;;1.70;;
8694;SDS011;65580;49.446;6.854;2023-04-25T16:06:18;3.72;;;1.60;;
8694;SDS011;65580;49.446;6.854;2023-04-25T16:10:23;4.13;;;1.88;;
8694;SDS011;65580;49.446;6.854;2023-04-25T16:14:33;3.70;;;1.38;;
8694;SDS011;65580;49.446;6.854;2023-04-25T16:18:36;4.68;;;1.50;;
8694;SDS011;65580;49.446;6.854;2023-04-25T16:22:43;5.95;;;1.95;;
8694;SDS011;65580;49.446;6.854;2023-04-25T16:31:03;3.63;;;1.50;;
8694;SDS011;65580;49.446;6.854;2023-04-25T16:35:08;4.93;;;1.65;;
8694;SDS011;65580;49.446;6.854;2023-04-25T16:39:15;7.40;;;1.67;;
8694;SDS011;65580;49.446;6.854;2023-04-25T16:43:24;5.78;;;1.50;;
8694;SDS011;65580;49.446;6.854;2023-04-25T16:47:38;4.05;;;1.88;;
8694;SDS011;65580;49.446;6.854;2023-04-25T16:51:43;3.17;;;1.40;;
8694;SDS011;65580;49.446;6.854;2023-04-25T16:55:50;6.93;;;1.80;;
8694;SDS011;65580;49.446;6.854;2023-04-25T16:59:58;4.63;;;1.55;;
8694;SDS011;65580;49.446;6.854;2023-04-25T17:04:04;3.97;;;1.85;;
8694;SDS011;65580;49.446;6.854;2023-04-25T17:08:08;6.50;;;1.70;;
8694;SDS011;65580;49.446;6.854;2023-04-25T17:12:17;3.35;;;1.52;;
8694;SDS011;65580;49.446;6.854;2023-04-25T17:16:34;8.23;;;1.80;;
8694;SDS011;65580;49.446;6.854;2023-04-25T17:20:40;4.68;;;1.95;;
8694;SDS011;65580;49.446;6.854;2023-04-25T17:24:45;7.07;;;2.08;;
8694;SDS011;65580;49.446;6.854;2023-04-25T17:28:50;4.90;;;1.83;;
8694;SDS011;65580;49.446;6.854;2023-04-25T17:32:57;4.93;;;1.77;;
8694;SDS011;65580;49.446;6.854;2023-04-25T17:37:08;4.85;;;1.85;;
8694;SDS011;65580;49.446;6.854;2023-04-25T17:41:15;6.68;;;2.15;;
8694;SDS011;65580;49.446;6.854;2023-04-25T17:45:22;5.57;;;2.00;;
8694;SDS011;65580;49.446;6.854;2023-04-25T17:49:36;5.15;;;1.90;;
8694;SDS011;65580;49.446;6.854;2023-04-25T17:53:39;11.02;;;2.40;;
8694;SDS011;65580;49.446;6.854;2023-04-25T17:57:43;5.82;;;2.13;;
8694;SDS011;65580;49.446;6.854;2023-04-25T18:01:54;5.45;;;1.95;;
8694;SDS011;65580;49.446;6.854;2023-04-25T18:06:09;8.13;;;2.10;;
8694;SDS011;65580;49.446;6.854;2023-04-25T18:10:16;7.30;;;1.70;;
8694;SDS011;65580;49.446;6.854;2023-04-25T18:14:20;6.10;;;2.08;;
8694;SDS011;65580;49.446;6.854;2023-04-25T18:18:25;6.40;;;1.92;;
8694;SDS011;65580;49.446;6.854;2023-04-25T18:22:36;4.60;;;1.92;;
8694;SDS011;65580;49.446;6.854;2023-04-25T18:26:43;7.78;;;1.80;;
8694;SDS011;65580;49.446;6.854;2023-04-25T18:30:47;6.95;;;2.13;;
8694;SDS011;65580;49.446;6.854;2023-04-25T18:35:01;6.57;;;2.25;;
8694;SDS011;65580;49.446;6.854;2023-04-25T18:39:06;6.35;;;2.30;;
8694;SDS011;65580;49.446;6.854;2023-04-25T18:43:23;4.38;;;2.10;;
8694;SDS011;65580;49.446;6.854;2023-04-25T18:47:39;4.80;;;2.10;;
8694;SDS011;65580;49.446;6.854;2023-04-25T18:51:43;3.58;;;1.92;;
8694;SDS011;65580;49.446;6.854;2023-04-25T18:55:48;6.68;;;2.17;;
8694;SDS011;65580;49.446;6.854;2023-04-25T18:59:55;5.07;;;2.00;;
8694;SDS011;65580;49.446;6.854;2023-04-25T19:04:03;7.82;;;2.90;;
8694;SDS011;65580;49.446;6.854;2023-04-25T19:08:08;5.95;;;2.20;;
8694;SDS011;65580;49.446;6.854;2023-04-25T19:12:14;5.72;;;2.42;;
8694;SDS011;65580;49.446;6.854;2023-04-25T19:16:21;7.10;;;2.58;;
8694;SDS011;65580;49.446;6.854;2023-04-25T19:20:31;7.20;;;2.65;;
8694;SDS011;65580;49.446;6.854;2023-04-25T19:24:36;7.18;;;2.70;;
8694;SDS011;65580;49.446;6.854;2023-04-25T19:28:46;6.80;;;2.63;;
8694;SDS011;65580;49.446;6.854;2023-04-25T19:32:58;7.40;;;3.00;;
8694;SDS011;65580;49.446;6.854;2023-04-25T19:41:12;5.13;;;2.72;;
8694;SDS011;65580;49.446;6.854;2023-04-25T19:45:17;4.82;;;2.53;;
8694;SDS011;65580;49.446;6.854;2023-04-25T19:49:24;6.45;;;2.40;;
8694;SDS011;65580;49.446;6.854;2023-04-25T19:53:27;7.90;;;2.67;;
8694;SDS011;65580;49.446;6.854;2023-04-25T19:57:39;9.32;;;3.30;;
8694;SDS011;65580;49.446;6.854;2023-04-25T20:01:45;5.93;;;2.78;;
8694;SDS011;65580;49.446;6.854;2023-04-25T20:05:51;7.68;;;3.05;;
8694;SDS011;65580;49.446;6.854;2023-04-25T20:10:05;9.98;;;2.60;;
8694;SDS011;65580;49.446;6.854;2023-04-25T20:14:09;11.88;;;2.60;;
8694;SDS011;65580;49.446;6.854;2023-04-25T20:18:15;3.55;;;2.13;;
8694;SDS011;65580;49.446;6.854;2023-04-25T20:22:20;7.93;;;2.50;;
8694;SDS011;65580;49.446;6.854;2023-04-25T20:26:25;4.88;;;2.33;;
8694;SDS011;65580;49.446;6.854;2023-04-25T20:30:30;5.68;;;2.42;;
8694;SDS011;65580;49.446;6.854;2023-04-25T20:34:37;6.50;;;2.45;;
8694;SDS011;65580;49.446;6.854;2023-04-25T20:38:41;5.30;;;2.70;;
8694;SDS011;65580;49.446;6.854;2023-04-25T20:42:44;9.55;;;3.60;;
8694;SDS011;65580;49.446;6.854;2023-04-25T20:46:48;9.00;;;3.67;;
8694;SDS011;65580;49.446;6.854;2023-04-25T20:50:55;11.73;;;3.53;;
8694;SDS011;65580;49.446;6.854;2023-04-25T20:55:08;9.60;;;3.45;;
8694;SDS011;65580;49.446;6.854;2023-04-25T20:59:13;9.60;;;3.38;;
8694;SDS011;65580;49.446;6.854;2023-04-25T21:03:17;6.32;;;3.25;;
8694;SDS011;65580;49.446;6.854;2023-04-25T21:07:26;6.93;;;3.42;;
8694;SDS011;65580;49.446;6.854;2023-04-25T21:11:31;11.43;;;3.30;;
8694;SDS011;65580;49.446;6.854;2023-04-25T21:15:34;13.45;;;4.57;;
8694;SDS011;65580;49.446;6.854;2023-04-25T21:19:39;9.38;;;3.33;;
8694;SDS011;65580;49.446;6.854;2023-04-25T21:27:59;12.90;;;3.50;;
8694;SDS011;65580;49.446;6.854;2023-04-25T21:32:04;8.18;;;3.70;;
8694;SDS011;65580;49.446;6.854;2023-04-25T21:36:10;8.23;;;3.83;;
8694;SDS011;65580;49.446;6.854;2023-04-25T21:40:15;9.45;;;3.47;;
8694;SDS011;65580;49.446;6.854;2023-04-25T21:44:22;9.43;;;4.18;;
8694;SDS011;65580;49.446;6.854;2023-04-25T21:48:26;7.47;;;3.53;;
8694;SDS011;65580;49.446;6.854;2023-04-25T21:52:32;8.20;;;3.25;;
8694;SDS011;65580;49.446;6.854;2023-04-25T21:56:45;9.27;;;3.05;;
8694;SDS011;65580;49.446;6.854;2023-04-25T22:00:49;12.43;;;4.43;;
8694;SDS011;65580;49.446;6.854;2023-04-25T22:04:53;5.78;;;3.35;;
8694;SDS011;65580;49.446;6.854;2023-04-25T22:08:58;8.32;;;3.70;;
8694;SDS011;65580;49.446;6.854;2023-04-25T22:13:05;9.23;;;4.15;;
8694;SDS011;65580;49.446;6.854;2023-04-25T22:17:12;12.60;;;5.35;;
8694;SDS011;65580;49.446;6.854;2023-04-25T22:21:16;9.05;;;3.70;;
8694;SDS011;65580;49.446;6.854;2023-04-25T22:25:23;10.30;;;3.72;;
8694;SDS011;65580;49.446;6.854;2023-04-25T22:29:29;6.95;;;3.53;;
8694;SDS011;65580;49.446;6.854;2023-04-25T22:33:33;15.65;;;4.07;;
8694;SDS011;65580;49.446;6.854;2023-04-25T22:37:37;10.95;;;4.35;;
8694;SDS011;65580;49.446;6.854;2023-04-25T22:41:46;9.75;;;4.20;;
8694;SDS011;65580;49.446;6.854;2023-04-25T22:45:52;12.38;;;4.55;;
8694;SDS011;65580;49.446;6.854;2023-04-25T22:49:57;12.05;;;4.50;;
8694;SDS011;65580;49.446;6.854;2023-04-25T22:54:02;9.52;;;4.50;;
8694;SDS011;65580;49.446;6.854;2023-04-25T22:58:09;21.67;;;6.88;;
8694;SDS011;65580;49.446;6.854;2023-04-25T23:02:18;15.90;;;5.50;;
8694;SDS011;65580;49.446;6.854;2023-04-25T23:06:23;11.52;;;4.78;;
8694;SDS011;65580;49.446;6.854;2023-04-25T23:10:27;10.43;;;4.47;;
8694;SDS011;65580;49.446;6.854;2023-04-25T23:14:40;10.70;;;4.75;;
8694;SDS011;65580;49.446;6.854;2023-04-25T23:18:46;10.80;;;4.47;;
8694;SDS011;65580;49.446;6.854;2023-04-25T23:22:50;10.57;;;5.03;;
8694;SDS011;65580;49.446;6.854;2023-04-25T23:26:58;11.90;;;5.90;;
8694;SDS011;65580;49.446;6.854;2023-04-25T23:31:03;17.95;;;7.45;;
8694;SDS011;65580;49.446;6.854;2023-04-25T23:39:14;13.10;;;5.22;;
8694;SDS011;65580;49.446;6.854;2023-04-25T23:43:23;14.02;;;5.93;;
8694;SDS011;65580;49.446;6.854;2023-04-25T23:47:27;9.23;;;5.40;;
8694;SDS011;65580;49.446;6.854;2023-04-25T23:51:34;13.32;;;6.25;;
8694;SDS011;65580;49.446;6.854;2023-04-25T23:55:47;13.18;;;5.28;;
8694;SDS011;65580;49.446;6.854;2023-04-25T23:59:51;12.63;;;5.53;;
